Time;durP1;ratioP1;P1;durP2;ratioP2;P2;SDS_P1;SDS_P2;PMS_P1;PMS_P2;Temp;Humidity;BMP_temperature;BMP_pressure;BME280_temperature;BME280_humidity;BME280_pressure;Samples;Min_cycle;Max_cycle;Signal;HPM_P1;HPM_P2
2023/11/23 00:01:27;;;;;;;8.02;1.83;;;12.20;99.90;;;;;;5047528;28;20348;-77
2023/11/23 00:03:53;;;;;;;9.93;2.03;;;12.20;99.90;;;;;;5048366;28;20025;-77
2023/11/23 00:06:18;;;;;;;7.80;1.70;;;12.30;99.90;;;;;;5048102;28;20028;-77
2023/11/23 00:08:44;;;;;;;9.05;2.00;;;12.20;99.90;;;;;;5047362;28;20037;-77
2023/11/23 00:11:10;;;;;;;7.90;2.13;;;12.30;99.90;;;;;;5030446;28;20033;-77
2023/11/23 00:13:36;;;;;;;6.90;1.98;;;12.30;99.90;;;;;;5047928;28;20039;-77
2023/11/23 00:16:02;;;;;;;12.30;2.33;;;12.30;99.90;;;;;;5030716;28;20266;-77
2023/11/23 00:18:28;;;;;;;6.65;2.10;;;12.30;99.90;;;;;;5046742;28;20029;-77
2023/11/23 00:20:55;;;;;;;8.85;2.03;;;12.30;99.90;;;;;;5030627;28;20152;-77
2023/11/23 00:23:20;;;;;;;13.90;2.03;;;12.30;99.90;;;;;;5030518;28;20033;-77
2023/11/23 00:25:46;;;;;;;7.55;1.88;;;12.30;99.90;;;;;;5013989;28;20021;-78
2023/11/23 00:28:12;;;;;;;7.03;2.03;;;12.30;99.90;;;;;;5047774;28;20207;-77
2023/11/23 00:30:38;;;;;;;4.65;1.70;;;12.30;99.90;;;;;;5047985;28;20021;-77
2023/11/23 00:33:03;;;;;;;7.35;1.80;;;12.30;99.90;;;;;;5046808;28;20195;-77
2023/11/23 00:35:29;;;;;;;4.10;1.80;;;12.30;99.90;;;;;;5047332;28;20183;-77
2023/11/23 00:37:55;;;;;;;7.40;2.15;;;12.30;99.90;;;;;;5046704;28;20037;-77
2023/11/23 00:40:21;;;;;;;6.18;1.95;;;12.30;99.90;;;;;;5030201;28;20100;-77
2023/11/23 00:42:46;;;;;;;3.35;1.67;;;12.30;99.90;;;;;;5046613;28;20040;-77
2023/11/23 00:45:14;;;;;;;6.63;2.22;;;12.30;99.90;;;;;;5046660;28;20021;-77
2023/11/23 00:47:41;;;;;;;5.22;1.88;;;12.30;99.90;;;;;;5030365;28;20029;-77
2023/11/23 00:50:08;;;;;;;11.98;2.85;;;12.30;99.90;;;;;;5046459;28;20200;-77
2023/11/23 00:52:34;;;;;;;11.13;2.80;;;12.30;99.90;;;;;;5029980;28;20053;-77
2023/11/23 00:55:04;;;;;;;9.00;1.98;;;12.30;99.90;;;;;;5046414;28;20037;-77
2023/11/23 00:57:32;;;;;;;11.65;2.17;;;12.30;99.90;;;;;;5014549;28;20025;-77
2023/11/23 00:59:59;;;;;;;8.20;2.25;;;12.30;99.90;;;;;;5029836;28;20025;-78
2023/11/23 01:02:24;;;;;;;12.38;2.92;;;12.30;99.90;;;;;;5047142;28;20033;-77
2023/11/23 01:04:50;;;;;;;12.05;2.70;;;12.30;99.90;;;;;;5047240;28;20022;-77
2023/11/23 01:07:16;;;;;;;14.93;3.28;;;12.30;99.90;;;;;;5047288;28;20059;-77
2023/11/23 01:09:42;;;;;;;15.65;3.10;;;12.20;99.90;;;;;;5046691;28;20026;-77
2023/11/23 01:12:08;;;;;;;12.63;3.13;;;12.20;99.90;;;;;;5046022;28;20060;-77
2023/11/23 01:14:34;;;;;;;12.25;3.15;;;12.20;99.90;;;;;;5047085;28;20028;-77
2023/11/23 01:17:00;;;;;;;8.52;2.20;;;12.20;99.90;;;;;;5029478;28;20030;-77
2023/11/23 01:19:27;;;;;;;5.13;1.38;;;12.20;99.90;;;;;;5029382;28;20053;-78
2023/11/23 01:21:53;;;;;;;12.45;2.17;;;12.20;99.90;;;;;;5046642;28;20028;-77
2023/11/23 01:24:18;;;;;;;10.32;2.20;;;12.20;99.90;;;;;;5045918;28;20039;-77
2023/11/23 01:26:44;;;;;;;6.43;1.65;;;12.20;99.90;;;;;;5045627;28;20045;-77
2023/11/23 01:29:10;;;;;;;5.28;1.83;;;12.20;99.90;;;;;;5046339;28;20033;-77
2023/11/23 01:31:36;;;;;;;7.57;1.90;;;12.20;99.90;;;;;;5046419;28;20025;-77
2023/11/23 01:34:01;;;;;;;9.73;2.05;;;12.20;99.90;;;;;;5029281;28;20084;-77
2023/11/23 01:36:27;;;;;;;6.10;2.17;;;12.20;99.90;;;;;;5045709;28;20191;-77
2023/11/23 01:38:53;;;;;;;6.85;1.70;;;12.20;99.90;;;;;;5045523;28;20040;-77
2023/11/23 01:41:19;;;;;;;10.00;2.35;;;12.20;99.90;;;;;;5029200;28;20047;-77
2023/11/23 01:43:47;;;;;;;8.30;2.58;;;12.20;99.90;;;;;;5045612;28;20017;-77
2023/11/23 01:46:13;;;;;;;5.93;1.88;;;12.20;99.90;;;;;;5046321;28;20036;-77
2023/11/23 01:48:40;;;;;;;5.72;1.67;;;12.20;99.90;;;;;;5045275;28;20022;-77
2023/11/23 01:51:08;;;;;;;6.85;1.92;;;12.20;99.90;;;;;;5046462;28;20041;-77
2023/11/23 01:53:34;;;;;;;5.88;2.05;;;12.20;99.90;;;;;;5029193;28;20029;-77
2023/11/23 01:56:00;;;;;;;7.53;1.50;;;12.20;99.90;;;;;;5045181;28;20128;-77
2023/11/23 01:58:26;;;;;;;8.55;2.17;;;12.20;99.90;;;;;;5028925;28;20079;-77
2023/11/23 02:00:51;;;;;;;8.15;1.73;;;12.20;99.90;;;;;;5028598;28;20037;-77
2023/11/23 02:03:21;;;;;;;3.85;1.48;;;12.20;99.90;;;;;;5046153;28;20056;-77
2023/11/23 02:05:46;;;;;;;6.20;1.70;;;12.20;99.90;;;;;;5028816;28;20175;-77
2023/11/23 02:08:12;;;;;;;3.75;1.20;;;12.20;99.90;;;;;;5028618;28;20089;-78
2023/11/23 02:10:38;;;;;;;8.60;2.53;;;12.20;99.90;;;;;;5045958;28;20028;-77
2023/11/23 02:13:04;;;;;;;6.07;1.45;;;12.20;99.90;;;;;;5028608;28;20049;-77
2023/11/23 02:15:30;;;;;;;5.70;1.50;;;12.20;99.90;;;;;;5011920;28;20048;-77
2023/11/23 02:18:03;;;;;;;7.80;1.73;;;12.20;99.90;;;;;;5044631;28;20025;-77
2023/11/23 02:20:29;;;;;;;6.05;1.48;;;12.20;99.90;;;;;;5028366;28;20061;-77
2023/11/23 02:22:55;;;;;;;8.82;1.65;;;12.20;99.90;;;;;;5045764;28;20163;-77
2023/11/23 02:25:20;;;;;;;8.75;2.03;;;12.20;99.90;;;;;;5028255;28;20028;-77
2023/11/23 02:27:48;;;;;;;7.68;1.60;;;12.30;99.90;;;;;;5044797;28;20089;-77
2023/11/23 02:30:14;;;;;;;6.35;1.33;;;12.20;99.90;;;;;;5044664;28;20022;-77
2023/11/23 02:32:39;;;;;;;8.85;1.65;;;12.20;99.90;;;;;;5045678;28;20025;-77
2023/11/23 02:35:05;;;;;;;6.88;1.30;;;12.20;99.90;;;;;;5045586;28;20041;-77
2023/11/23 02:37:31;;;;;;;9.05;1.50;;;12.20;99.90;;;;;;5011735;28;20063;-77
2023/11/23 02:39:57;;;;;;;5.80;1.50;;;12.10;99.90;;;;;;5028013;28;20040;-77
2023/11/23 02:42:23;;;;;;;5.88;1.30;;;12.10;99.90;;;;;;5028037;28;20033;-77
2023/11/23 02:44:48;;;;;;;8.10;1.60;;;12.00;99.90;;;;;;5045562;28;20055;-77
2023/11/23 02:47:14;;;;;;;12.27;2.83;;;11.90;99.90;;;;;;5045519;28;20022;-77
2023/11/23 02:49:40;;;;;;;6.47;1.60;;;11.90;99.90;;;;;;5044132;28;20049;-77
2023/11/23 02:52:06;;;;;;;11.05;2.30;;;11.80;99.90;;;;;;5044221;28;20029;-77
2023/11/23 02:54:31;;;;;;;8.02;1.50;;;11.70;99.90;;;;;;5044446;28;20036;-76
2023/11/23 02:56:57;;;;;;;9.15;2.20;;;11.70;99.90;;;;;;5044418;28;20279;-77
2023/11/23 02:59:23;;;;;;;5.20;1.90;;;11.70;99.90;;;;;;5044120;28;20041;-77
2023/11/23 03:01:48;;;;;;;7.70;2.80;;;11.70;99.90;;;;;;5044372;28;20036;-77
2023/11/23 03:04:14;;;;;;;4.70;1.83;;;11.70;99.90;;;;;;5045236;28;20036;-78
2023/11/23 03:06:40;;;;;;;6.57;1.95;;;11.70;99.90;;;;;;5044349;28;20278;-77
2023/11/23 03:09:06;;;;;;;6.20;1.98;;;11.70;99.90;;;;;;5045218;28;20029;-77
2023/11/23 03:11:32;;;;;;;5.82;1.63;;;11.70;99.90;;;;;;5044126;28;20025;-77
2023/11/23 03:13:58;;;;;;;7.13;1.42;;;11.80;99.90;;;;;;5027688;28;20117;-77
2023/11/23 03:16:27;;;;;;;8.32;2.13;;;11.80;99.90;;;;;;5027739;28;20060;-77
2023/11/23 03:18:52;;;;;;;4.78;1.73;;;11.80;99.90;;;;;;5028228;28;20033;-77
2023/11/23 03:21:18;;;;;;;8.85;1.98;;;11.80;99.90;;;;;;5027784;28;20096;-77
2023/11/23 03:23:45;;;;;;;7.70;1.90;;;11.80;99.90;;;;;;5044141;28;20017;-77
2023/11/23 03:26:11;;;;;;;7.90;1.75;;;11.80;99.90;;;;;;5045008;28;20105;-77
2023/11/23 03:28:37;;;;;;;6.75;1.40;;;11.80;99.90;;;;;;5044743;28;20199;-77
2023/11/23 03:31:03;;;;;;;8.82;1.30;;;11.80;99.90;;;;;;5045140;28;20032;-77
2023/11/23 03:33:28;;;;;;;10.52;1.77;;;11.80;99.90;;;;;;5027745;28;20089;-77
2023/11/23 03:35:54;;;;;;;7.25;1.80;;;11.80;99.90;;;;;;5043987;28;20087;-77
2023/11/23 03:38:20;;;;;;;6.88;1.90;;;11.80;99.90;;;;;;5011112;28;20119;-77
2023/11/23 03:40:46;;;;;;;5.65;1.50;;;11.80;99.90;;;;;;5044012;28;20108;-77
2023/11/23 03:43:11;;;;;;;9.93;1.60;;;11.80;99.90;;;;;;5043668;28;20038;-76
2023/11/23 03:45:37;;;;;;;9.50;1.65;;;11.80;99.90;;;;;;5027231;28;20022;-77
2023/11/23 03:48:03;;;;;;;8.10;1.65;;;11.80;99.90;;;;;;5047320;28;20160;-77
2023/11/23 03:50:29;;;;;;;7.75;1.70;;;11.80;99.90;;;;;;5048483;28;20088;-77
2023/11/23 03:52:55;;;;;;;8.43;1.58;;;11.80;99.90;;;;;;5047457;28;20290;-77
2023/11/23 03:55:21;;;;;;;7.68;2.00;;;11.80;99.90;;;;;;5048254;28;20033;-77
2023/11/23 03:57:46;;;;;;;4.22;1.42;;;11.80;99.90;;;;;;5030976;28;20283;-77
2023/11/23 04:00:13;;;;;;;7.72;1.92;;;11.80;99.90;;;;;;5048000;28;20049;-77
2023/11/23 04:02:39;;;;;;;4.47;1.02;;;11.90;99.90;;;;;;5030540;28;20060;-77
2023/11/23 04:05:05;;;;;;;7.72;1.80;;;11.90;99.90;;;;;;5030647;28;20017;-76
2023/11/23 04:07:34;;;;;;;7.28;1.35;;;11.90;99.90;;;;;;5048032;28;20033;-77
2023/11/23 04:10:00;;;;;;;5.68;1.30;;;11.90;99.90;;;;;;5031130;28;20021;-77
2023/11/23 04:12:26;;;;;;;8.23;1.67;;;11.90;99.90;;;;;;5048225;28;20025;-77
2023/11/23 04:14:52;;;;;;;10.15;1.70;;;11.90;99.90;;;;;;5047426;28;20038;-77
2023/11/23 04:17:18;;;;;;;7.63;1.58;;;11.90;99.90;;;;;;5046818;28;20056;-77
2023/11/23 04:19:43;;;;;;;12.65;2.15;;;11.90;99.90;;;;;;5047856;28;20271;-77
2023/11/23 04:22:09;;;;;;;7.35;1.55;;;11.90;99.90;;;;;;5047748;28;20025;-77
2023/11/23 04:24:39;;;;;;;8.85;1.50;;;11.90;99.90;;;;;;5014231;28;20049;-77
2023/11/23 04:27:05;;;;;;;6.80;1.63;;;11.90;99.90;;;;;;5030588;28;20053;-77
2023/11/23 04:29:31;;;;;;;14.27;2.67;;;11.90;99.90;;;;;;5046942;28;20175;-77
2023/11/23 04:31:56;;;;;;;7.38;1.50;;;11.90;99.90;;;;;;5047975;28;20089;-78
2023/11/23 04:34:22;;;;;;;10.93;2.00;;;11.90;99.90;;;;;;5030361;28;20057;-77
2023/11/23 04:36:48;;;;;;;11.75;2.70;;;11.90;99.90;;;;;;5013933;28;20092;-77
2023/11/23 04:39:14;;;;;;;10.95;2.13;;;11.90;99.90;;;;;;5030315;28;20230;-77
2023/11/23 04:41:40;;;;;;;9.40;1.75;;;11.90;99.90;;;;;;5046488;28;20092;-77
2023/11/23 04:44:05;;;;;;;8.88;2.40;;;11.90;99.90;;;;;;5030075;28;20014;-77
2023/11/23 04:46:32;;;;;;;8.77;2.00;;;11.80;99.90;;;;;;5046485;28;20176;-77
2023/11/23 04:48:58;;;;;;;8.93;2.20;;;11.90;99.90;;;;;;5046313;28;20065;-77
2023/11/23 04:51:23;;;;;;;10.98;2.22;;;11.90;99.90;;;;;;5047036;28;20026;-77
2023/11/23 04:53:49;;;;;;;11.10;1.70;;;11.90;99.90;;;;;;5029809;28;20025;-77
2023/11/23 04:56:15;;;;;;;8.25;1.60;;;11.90;99.90;;;;;;5046328;28;20187;-77
2023/11/23 04:58:41;;;;;;;4.57;1.33;;;11.90;99.90;;;;;;5045181;28;20033;-77
2023/11/23 05:01:07;;;;;;;11.05;1.60;;;11.90;99.90;;;;;;5046237;28;20048;-77
2023/11/23 05:03:33;;;;;;;9.00;1.38;;;12.00;99.90;;;;;;5046139;28;20044;-77
2023/11/23 05:05:59;;;;;;;7.70;1.80;;;12.00;99.90;;;;;;5013185;28;20013;-77
2023/11/23 05:08:24;;;;;;;7.15;1.80;;;11.90;99.90;;;;;;5029618;28;20026;-77
2023/11/23 05:10:50;;;;;;;9.07;2.08;;;12.00;99.90;;;;;;5046677;28;20057;-77
2023/11/23 05:13:16;;;;;;;8.38;1.70;;;11.90;99.90;;;;;;5029591;28;20075;-77
2023/11/23 05:15:42;;;;;;;10.70;1.65;;;11.90;99.90;;;;;;5029489;28;20033;-77
2023/11/23 05:18:07;;;;;;;6.68;1.10;;;11.90;99.90;;;;;;5045970;28;20045;-77
2023/11/23 05:20:33;;;;;;;12.73;1.85;;;11.90;99.90;;;;;;5045888;28;20025;-77
2023/11/23 05:22:59;;;;;;;6.60;1.98;;;11.90;99.90;;;;;;5045842;28;20084;-76
2023/11/23 05:25:25;;;;;;;13.00;1.88;;;12.00;99.90;;;;;;5046019;28;20037;-77
2023/11/23 05:27:50;;;;;;;10.25;1.60;;;11.90;99.90;;;;;;5045753;28;20022;-77
2023/11/23 05:30:17;;;;;;;9.15;1.90;;;12.00;99.90;;;;;;5046664;28;20052;-77
2023/11/23 05:32:43;;;;;;;10.20;2.38;;;11.90;99.90;;;;;;5045757;28;20217;-77
2023/11/23 05:35:09;;;;;;;10.82;1.90;;;11.90;99.90;;;;;;5046725;28;20025;-77
2023/11/23 05:37:34;;;;;;;10.43;1.67;;;11.90;99.90;;;;;;5046375;28;20033;-77
2023/11/23 05:40:00;;;;;;;10.23;1.50;;;11.90;99.90;;;;;;5045569;28;20100;-77
2023/11/23 05:42:30;;;;;;;10.27;1.45;;;11.90;99.90;;;;;;5046416;28;20029;-77
2023/11/23 05:44:55;;;;;;;;;;;11.90;99.90;;;;;;5045987;28;20025;-77
2023/11/23 05:47:21;;;;;;;7.65;1.77;;;11.90;99.90;;;;;;5045252;28;19943;-77
2023/11/23 05:49:47;;;;;;;12.93;1.60;;;11.90;99.90;;;;;;5045221;28;20041;-77
2023/11/23 05:52:12;;;;;;;5.38;1.30;;;11.90;99.90;;;;;;5045155;28;20037;-77
2023/11/23 05:54:38;;;;;;;8.60;1.58;;;11.90;99.90;;;;;;5046256;28;20029;-76
2023/11/23 05:57:04;;;;;;;7.47;1.90;;;11.90;99.90;;;;;;5028844;28;20022;-76
2023/11/23 05:59:30;;;;;;;7.43;1.40;;;11.90;99.90;;;;;;5012295;28;20037;-77
2023/11/23 06:01:56;;;;;;;5.00;1.70;;;11.90;99.90;;;;;;5044974;28;20044;-77
2023/11/23 06:04:22;;;;;;;7.03;1.40;;;11.90;99.90;;;;;;5046066;28;20017;-77
2023/11/23 06:06:47;;;;;;;6.38;1.35;;;11.90;99.90;;;;;;5045135;28;20025;-77
2023/11/23 06:09:13;;;;;;;10.98;2.20;;;11.90;99.90;;;;;;5045805;28;20030;-77
2023/11/23 06:11:39;;;;;;;10.68;1.80;;;11.90;99.90;;;;;;5045954;28;20080;-77
2023/11/23 06:14:05;;;;;;;9.10;1.67;;;11.90;99.90;;;;;;5045817;28;20025;-77
2023/11/23 06:16:30;;;;;;;7.18;1.67;;;11.90;99.90;;;;;;5044864;28;20118;-76
2023/11/23 06:18:56;;;;;;;6.55;1.30;;;11.80;99.90;;;;;;5045852;28;20029;-77
2023/11/23 06:21:22;;;;;;;8.30;1.60;;;11.80;99.90;;;;;;5028191;28;20044;-76
2023/11/23 06:23:48;;;;;;;9.10;1.55;;;11.80;99.90;;;;;;5044776;28;20286;-77
2023/11/23 06:26:13;;;;;;;7.18;1.48;;;11.70;99.90;;;;;;5044582;28;20055;-77
2023/11/23 06:28:39;;;;;;;12.45;1.52;;;11.70;99.90;;;;;;5028362;28;20052;-77
2023/11/23 06:31:05;;;;;;;8.60;1.40;;;11.70;99.90;;;;;;5044802;28;20032;-76
2023/11/23 06:33:31;;;;;;;9.68;1.48;;;11.70;99.90;;;;;;5028228;28;20022;-76
2023/11/23 06:35:57;;;;;;;11.38;1.80;;;11.80;99.90;;;;;;5045392;28;20029;-77
2023/11/23 06:38:25;;;;;;;7.32;1.35;;;11.80;99.90;;;;;;5044571;28;20057;-77
2023/11/23 06:40:51;;;;;;;9.65;1.70;;;11.80;99.90;;;;;;5044591;28;20175;-77
2023/11/23 06:43:17;;;;;;;8.05;1.38;;;11.80;99.90;;;;;;5027841;28;20037;-77
2023/11/23 06:45:43;;;;;;;8.43;1.52;;;11.70;99.90;;;;;;5044380;28;20036;-77
2023/11/23 06:48:08;;;;;;;8.98;2.13;;;11.70;99.90;;;;;;5044365;28;20235;-77
2023/11/23 06:50:34;;;;;;;7.63;1.52;;;11.70;99.90;;;;;;5027590;28;20045;-77
2023/11/23 06:53:00;;;;;;;15.43;5.35;;;11.70;99.90;;;;;;5044372;28;20234;-77
2023/11/23 06:55:26;;;;;;;12.68;2.92;;;11.70;99.90;;;;;;5027900;28;20036;-76
2023/11/23 06:57:51;;;;;;;13.98;4.38;;;11.70;99.90;;;;;;5044066;28;20040;-77
2023/11/23 07:00:23;;;;;;;17.15;5.07;;;11.70;99.90;;;;;;5044197;28;20041;-77
2023/11/23 07:02:55;;;;;;;17.08;5.40;;;11.80;99.90;;;;;;5044344;28;20101;-77
2023/11/23 07:05:21;;;;;;;16.10;3.03;;;11.80;99.90;;;;;;5044046;28;20346;-76
2023/11/23 07:07:50;;;;;;;8.38;2.35;;;11.80;99.90;;;;;;5045044;28;20029;-77
2023/11/23 07:10:17;;;;;;;6.60;1.70;;;11.90;99.90;;;;;;5028419;28;20061;-77
2023/11/23 07:12:43;;;;;;;11.93;2.95;;;11.90;99.90;;;;;;5044329;28;20071;-76
2023/11/23 07:15:12;;;;;;;5.65;1.50;;;11.80;99.90;;;;;;5027709;28;20444;-76
2023/11/23 07:17:41;;;;;;;5.70;1.67;;;11.90;99.90;;;;;;5045004;28;20222;-77
2023/11/23 07:20:11;;;;;;;8.93;2.27;;;11.80;99.90;;;;;;5044978;28;20044;-77
2023/11/23 07:22:37;;;;;;;;;;;11.90;99.90;;;;;;5047332;28;20021;-78
2023/11/23 07:25:04;;;;;;;6.47;1.55;;;11.80;99.90;;;;;;5049162;28;19915;-77
2023/11/23 07:27:29;;;;;;;10.13;2.50;;;11.90;99.90;;;;;;5047830;28;20235;-76
2023/11/23 07:29:55;;;;;;;10.63;2.30;;;11.90;99.90;;;;;;5047741;28;20024;-77
2023/11/23 07:32:21;;;;;;;10.32;2.20;;;11.90;99.90;;;;;;5049450;28;20029;-76
2023/11/23 07:34:47;;;;;;;12.13;2.40;;;11.90;99.90;;;;;;5048091;28;20040;-76
2023/11/23 07:37:13;;;;;;;9.07;1.90;;;11.90;99.90;;;;;;5047931;28;20325;-76
2023/11/23 07:39:39;;;;;;;10.27;2.25;;;11.90;99.90;;;;;;5048117;28;20029;-77
2023/11/23 07:42:05;;;;;;;8.75;2.33;;;11.80;99.90;;;;;;5047635;28;20083;-77
2023/11/23 07:44:31;;;;;;;8.35;1.92;;;11.90;99.90;;;;;;5014773;28;20107;-76
2023/11/23 07:46:57;;;;;;;8.25;1.90;;;11.80;99.90;;;;;;5047660;28;20210;-77
2023/11/23 07:49:23;;;;;;;7.20;1.90;;;11.80;99.90;;;;;;5030943;28;20365;-76
2023/11/23 07:51:49;;;;;;;8.95;2.95;;;11.90;99.90;;;;;;5030971;28;20029;-76
2023/11/23 07:54:15;;;;;;;13.45;1.90;;;11.80;99.90;;;;;;5047421;28;20041;-76
2023/11/23 07:56:41;;;;;;;9.48;1.83;;;11.80;99.90;;;;;;5047505;28;20186;-76
2023/11/23 07:59:07;;;;;;;6.88;1.45;;;11.90;99.90;;;;;;5030595;28;20036;-76
2023/11/23 08:01:33;;;;;;;7.20;1.40;;;11.90;99.90;;;;;;5047426;28;20096;-77
2023/11/23 08:04:00;;;;;;;13.30;1.92;;;11.90;99.90;;;;;;5047740;28;20067;-77
2023/11/23 08:06:26;;;;;;;4.45;1.30;;;11.90;99.90;;;;;;5046910;28;20021;-77
2023/11/23 08:08:52;;;;;;;6.47;1.70;;;11.90;99.90;;;;;;5030719;28;20190;-77
2023/11/23 08:11:18;;;;;;;7.03;1.60;;;11.90;99.90;;;;;;5047397;28;20026;-76
2023/11/23 08:13:44;;;;;;;6.82;1.38;;;11.90;99.90;;;;;;5030548;28;20013;-76
2023/11/23 08:16:10;;;;;;;4.32;1.50;;;11.90;99.90;;;;;;5047944;28;20075;-76
2023/11/23 08:18:36;;;;;;;4.55;1.80;;;11.90;99.90;;;;;;5047425;28;20115;-77
2023/11/23 08:21:01;;;;;;;5.75;1.50;;;11.90;99.90;;;;;;5046766;28;20279;-76
2023/11/23 08:23:27;;;;;;;9.00;1.58;;;11.90;99.90;;;;;;5030151;28;20079;-77
2023/11/23 08:25:53;;;;;;;9.10;3.05;;;11.90;99.90;;;;;;5046649;28;20029;-77
2023/11/23 08:28:19;;;;;;;7.65;1.65;;;12.00;99.90;;;;;;5047502;28;20074;-77
2023/11/23 08:30:47;;;;;;;16.45;3.03;;;12.00;99.90;;;;;;5030140;28;20025;-77
2023/11/23 08:33:13;;;;;;;9.70;1.90;;;11.90;99.90;;;;;;5014001;28;20053;-76
2023/11/23 08:35:39;;;;;;;6.97;1.80;;;11.90;99.90;;;;;;5030122;28;20309;-76
2023/11/23 08:38:05;;;;;;;7.50;1.85;;;12.00;99.90;;;;;;5029871;28;20025;-77
2023/11/23 08:40:31;;;;;;;9.55;1.73;;;12.00;99.90;;;;;;5029849;28;20056;-77
2023/11/23 08:42:56;;;;;;;9.20;1.73;;;12.00;99.90;;;;;;5047243;28;20033;-76
2023/11/23 08:45:22;;;;;;;8.70;2.10;;;12.00;99.90;;;;;;5047133;28;20025;-77
2023/11/23 08:47:48;;;;;;;7.22;2.00;;;12.00;99.90;;;;;;5046258;28;20025;-77
2023/11/23 08:50:13;;;;;;;7.55;1.73;;;12.00;99.90;;;;;;5045711;28;20053;-76
2023/11/23 08:52:39;;;;;;;4.95;1.40;;;12.00;99.90;;;;;;5046220;28;20025;-77
2023/11/23 08:55:11;;;;;;;9.30;2.28;;;12.00;99.90;;;;;;5045763;28;20102;-78
2023/11/23 08:57:37;;;;;;;8.63;2.20;;;12.00;99.90;;;;;;5046610;28;20048;-76
2023/11/23 09:00:09;;;;;;;9.50;2.40;;;12.10;99.90;;;;;;5046943;28;20033;-77
2023/11/23 09:02:37;;;;;;;9.55;2.70;;;12.00;99.90;;;;;;5030218;28;20044;-77
2023/11/23 09:05:05;;;;;;;10.60;2.63;;;12.10;99.90;;;;;;5047030;28;20024;-77
2023/11/23 09:07:31;;;;;;;6.70;1.38;;;12.10;99.90;;;;;;5045906;28;20182;-76
2023/11/23 09:09:57;;;;;;;10.70;2.70;;;12.10;99.90;;;;;;5045701;28;20017;-76
2023/11/23 09:12:22;;;;;;;6.85;1.40;;;12.10;99.90;;;;;;5045982;28;20321;-77
2023/11/23 09:14:49;;;;;;;10.05;1.90;;;12.20;99.90;;;;;;5045420;28;20037;-76
2023/11/23 09:17:19;;;;;;;18.92;3.15;;;12.20;99.90;;;;;;5046772;28;20033;-76
2023/11/23 09:19:46;;;;;;;7.40;2.28;;;12.20;99.90;;;;;;5045500;28;20083;-76
2023/11/23 09:22:13;;;;;;;10.23;2.08;;;12.20;99.90;;;;;;5045303;28;20053;-76
2023/11/23 09:24:38;;;;;;;8.10;2.40;;;12.20;99.90;;;;;;5045432;28;20027;-75
2023/11/23 09:27:06;;;;;;;9.35;1.70;;;12.20;99.90;;;;;;5046082;28;20033;-77
2023/11/23 09:29:31;;;;;;;9.48;2.60;;;12.20;99.90;;;;;;5046208;28;20229;-78
2023/11/23 09:31:58;;;;;;;5.63;1.70;;;12.20;99.90;;;;;;5046272;28;20025;-78
2023/11/23 09:34:24;;;;;;;7.90;1.88;;;12.20;99.90;;;;;;5029019;28;20029;-79
2023/11/23 09:36:50;;;;;;;10.32;2.30;;;12.20;99.90;;;;;;5046334;28;20029;-78
2023/11/23 09:39:17;;;;;;;8.00;1.85;;;12.20;99.90;;;;;;5046463;28;20257;-77
2023/11/23 09:41:43;;;;;;;7.15;1.73;;;12.20;99.90;;;;;;5044987;28;20168;-78
2023/11/23 09:44:09;;;;;;;9.32;3.03;;;12.20;99.90;;;;;;5028039;28;20036;-78
2023/11/23 09:46:35;;;;;;;5.82;1.83;;;12.20;99.90;;;;;;5044862;28;20112;-78
2023/11/23 09:49:02;;;;;;;12.50;2.38;;;12.20;99.90;;;;;;5045811;28;20037;-79
2023/11/23 09:51:30;;;;;;;9.32;3.00;;;12.20;99.90;;;;;;5027865;28;20037;-75
2023/11/23 09:53:58;;;;;;;8.00;2.28;;;12.20;99.90;;;;;;5043929;28;20033;-76
2023/11/23 09:56:24;;;;;;;7.03;1.70;;;12.30;99.90;;;;;;5028199;28;20017;-76
2023/11/23 09:58:50;;;;;;;6.43;2.20;;;12.30;99.90;;;;;;5043996;28;20036;-76
2023/11/23 10:01:16;;;;;;;13.98;3.72;;;12.30;99.90;;;;;;5043752;28;20234;-76
2023/11/23 10:03:42;;;;;;;14.95;3.13;;;12.30;99.90;;;;;;5011210;28;20294;-76
2023/11/23 10:06:07;;;;;;;12.73;3.70;;;12.20;99.90;;;;;;5044049;28;20385;-78
2023/11/23 10:08:34;;;;;;;7.72;2.53;;;12.20;99.90;;;;;;5043814;28;20021;-76
2023/11/23 10:11:02;;;;;;;9.48;2.55;;;12.30;99.90;;;;;;5027645;28;20025;-76
2023/11/23 10:13:28;;;;;;;11.07;3.10;;;12.30;99.90;;;;;;5044741;28;20029;-75
2023/11/23 10:15:54;;;;;;;9.85;2.28;;;12.40;99.90;;;;;;5043830;28;20037;-76
2023/11/23 10:18:19;;;;;;;11.25;2.30;;;12.50;99.90;;;;;;5027120;28;20030;-77
2023/11/23 10:20:46;;;;;;;7.63;1.77;;;12.60;99.90;;;;;;5011044;28;20034;-77
2023/11/23 10:23:12;;;;;;;8.18;2.05;;;12.60;99.90;;;;;;5011275;28;20033;-76
2023/11/23 10:25:40;;;;;;;9.77;2.88;;;12.80;99.90;;;;;;5043706;28;20033;-76
2023/11/23 10:28:06;;;;;;;9.57;2.50;;;12.80;99.90;;;;;;5011211;28;20021;-77
2023/11/23 10:30:32;;;;;;;5.40;1.30;;;12.80;99.90;;;;;;5027180;28;20017;-76
2023/11/23 10:32:58;;;;;;;10.07;2.05;;;12.90;99.90;;;;;;5027096;28;20035;-76
2023/11/23 10:35:45;;;;;;;10.65;1.42;;;12.90;99.90;;;;;;5043433;28;20064;-76
2023/11/23 10:38:12;;;;;;;12.02;1.75;;;13.00;99.90;;;;;;5044637;28;20025;-76
2023/11/23 10:40:38;;;;;;;7.13;1.38;;;13.00;99.90;;;;;;5043451;28;20049;-76
2023/11/23 10:43:04;;;;;;;6.97;2.15;;;12.90;99.90;;;;;;5044156;28;20052;-76
2023/11/23 10:45:32;;;;;;;9.07;1.50;;;13.00;99.90;;;;;;5043099;28;20053;-76
2023/11/23 10:47:58;;;;;;;33.20;16.55;;;13.00;99.90;;;;;;5043234;28;20311;-76
2023/11/23 10:50:25;;;;;;;40.97;23.67;;;13.00;99.90;;;;;;5003968;28;1159011;-77
2023/11/23 10:52:51;;;;;;;214.30;111.97;;;13.10;99.90;;;;;;5045160;28;20025;-77
2023/11/23 10:55:17;;;;;;;148.05;78.13;;;13.10;99.90;;;;;;5044859;28;20029;-77
2023/11/23 10:57:49;;;;;;;101.68;57.33;;;13.00;99.90;;;;;;5044072;28;20282;-76
2023/11/23 11:00:16;;;;;;;39.05;20.58;;;13.10;99.90;;;;;;5043964;28;20037;-77
2023/11/23 11:02:43;;;;;;;26.15;17.50;;;13.20;99.90;;;;;;5044968;28;20030;-77
2023/11/23 11:05:32;;;;;;;13.43;8.57;;;13.20;99.90;;;;;;5027763;28;20100;-77
2023/11/23 11:08:01;;;;;;;13.00;8.57;;;13.20;99.90;;;;;;5043514;28;20022;-77
2023/11/23 11:10:37;;;;;;;12.15;4.22;;;13.20;99.90;;;;;;5044852;28;20017;-78
2023/11/23 11:13:13;;;;;;;8.63;2.58;;;13.20;99.90;;;;;;5043970;28;20044;-77
2023/11/23 11:16:03;;;;;;;10.27;5.68;;;13.10;99.90;;;;;;5044597;28;20025;-77
2023/11/23 11:18:29;;;;;;;41.72;23.23;;;13.20;99.90;;;;;;5044839;28;20271;-78
2023/11/23 11:21:11;;;;;;;28.05;15.52;;;13.10;99.90;;;;;;5027472;28;20036;-77
2023/11/23 11:23:51;;;;;;;12.48;6.85;;;13.10;99.90;;;;;;5043939;28;20104;-77
2023/11/23 11:26:27;;;;;;;15.75;8.13;;;13.10;99.90;;;;;;5011751;28;20022;-77
2023/11/23 11:28:57;;;;;;;17.00;9.15;;;13.00;99.90;;;;;;5044098;28;20283;-77
2023/11/23 11:31:36;;;;;;;12.70;7.45;;;12.90;99.90;;;;;;5043719;28;20075;-76
2023/11/23 11:34:17;;;;;;;17.45;4.15;;;12.90;99.90;;;;;;5026619;28;20109;-77
2023/11/23 11:36:43;;;;;;;16.98;3.97;;;12.80;99.90;;;;;;5044458;28;20136;-76
2023/11/23 11:39:10;;;;;;;22.75;8.27;;;12.80;99.90;;;;;;5043460;28;20029;-77
2023/11/23 11:41:37;;;;;;;14.93;3.63;;;12.90;99.90;;;;;;5043111;28;20040;-76
2023/11/23 11:44:08;;;;;;;8.50;3.35;;;12.90;99.90;;;;;;5044405;28;20038;-77
2023/11/23 11:46:34;;;;;;;11.10;2.78;;;12.90;99.90;;;;;;5044288;28;20025;-77
2023/11/23 11:49:00;;;;;;;10.55;2.97;;;13.00;99.90;;;;;;5043125;28;20164;-77
2023/11/23 11:51:29;;;;;;;7.63;1.92;;;13.00;99.90;;;;;;5010499;28;20048;-77
2023/11/23 11:53:55;;;;;;;11.48;2.88;;;13.00;99.90;;;;;;5027323;28;20147;-77
2023/11/23 11:56:24;;;;;;;18.48;4.10;;;13.00;99.90;;;;;;5026943;28;20032;-76
2023/11/23 11:58:51;;;;;;;66.82;26.02;;;13.10;99.90;;;;;;5027580;28;20044;-77
2023/11/23 12:01:19;;;;;;;55.63;24.42;;;13.00;99.90;;;;;;5010820;28;20041;-77
2023/11/23 12:03:51;;;;;;;14.50;5.32;;;13.10;99.90;;;;;;5027354;28;20032;-77
2023/11/23 12:06:18;;;;;;;29.40;12.63;;;13.10;99.90;;;;;;5026705;28;20045;-77
2023/11/23 12:08:45;;;;;;;13.85;3.65;;;13.10;99.90;;;;;;5029225;28;20025;-77
2023/11/23 12:11:20;;;;;;;14.77;7.10;;;13.10;99.90;;;;;;5030728;28;20029;-76
2023/11/23 12:13:46;;;;;;;16.58;10.73;;;13.10;99.90;;;;;;5031537;28;20096;-75
2023/11/23 12:16:13;;;;;;;19.05;8.52;;;13.10;99.90;;;;;;5047231;28;20067;-77
2023/11/23 12:18:39;;;;;;;14.75;6.95;;;13.10;99.90;;;;;;5029920;28;20057;-77
2023/11/23 12:21:12;;;;;;;16.55;4.15;;;13.20;99.90;;;;;;5046477;28;20021;-77
2023/11/23 12:23:44;;;;;;;9.30;3.15;;;13.20;99.90;;;;;;5046606;28;20044;-77
2023/11/23 12:26:10;;;;;;;13.50;2.97;;;13.20;99.90;;;;;;5046628;28;20091;-78
2023/11/23 12:28:37;;;;;;;14.85;2.70;;;13.20;99.90;;;;;;5013612;28;20104;-77
2023/11/23 12:31:03;;;;;;;16.33;6.00;;;13.20;99.90;;;;;;5029532;28;20025;-77
2023/11/23 12:33:28;;;;;;;11.23;2.58;;;13.30;99.90;;;;;;5046058;28;20038;-77
2023/11/23 12:35:54;;;;;;;12.10;2.72;;;13.30;99.90;;;;;;5046986;28;20132;-77
2023/11/23 12:38:20;;;;;;;10.93;2.30;;;13.30;99.90;;;;;;5045789;28;20101;-77
2023/11/23 12:40:46;;;;;;;9.88;2.38;;;13.40;99.90;;;;;;5046181;28;20044;-77